This is the latest recevied weather packets stored in our database for station/object DK6MR. If no packets are shown the sender has not sent any weather packets the latest 10 day(s).
| Time | Temp. | Humidity | Pressure | Rain* | Wind** | Luminosity | Snow |
|---|---|---|---|---|---|---|---|
| 1777580607 | 15.56° C | 33% | 1024.4 hPa | 0 mm | - | - | - |
| 1777579706 | 15.56° C | 32% | 1024.4 hPa | 0 mm | - | - | - |
| 1777578805 | 13.89° C | 37% | 1024.4 hPa | 0 mm | - | - | - |
| 1777577904 | 15° C | 38% | 1024 hPa | 0 mm | - | - | - |
| 1777577003 | 16.11° C | 33% | 1024 hPa | 0 mm | - | - | - |
| 1777576102 | 16.11° C | 32% | 1024 hPa | 0 mm | - | - | - |
| 1777575201 | 17.22° C | 31% | 1023.7 hPa | 0 mm | - | - | - |
| 1777574300 | 17.78° C | 30% | 1023.7 hPa | 0 mm | - | - | - |
| 1777573400 | 17.78° C | 28% | 1024 hPa | 0 mm | - | - | - |
| 1777572499 | 18.33° C | 27% | 1023.3 hPa | 0 mm | - | - | - |
| 1777571598 | 18.89° C | 27% | 1023.3 hPa | 0 mm | - | - | - |
| 1777570696 | 18.89° C | 26% | 1023.3 hPa | 0 mm | - | - | - |
| 1777569795 | 18.89° C | 25% | 1023.3 hPa | 0 mm | - | - | - |
| 1777568894 | 19.44° C | 25% | 1023.7 hPa | 0 mm | - | - | - |
| 1777567994 | 19.44° C | 25% | 1023.3 hPa | 0 mm | - | - | - |
| 1777567093 | 19.44° C | 25% | 1023.7 hPa | 0 mm | - | - | - |
| 1777566192 | 20° C | 24% | 1023.7 hPa | 0 mm | - | - | - |
| 1777565291 | 20° C | 23% | 1023.7 hPa | 0 mm | - | - | - |
| 1777564390 | 20° C | 23% | 1023.7 hPa | 0 mm | - | - | - |
| 1777563489 | 20.56° C | 22% | 1024 hPa | 0 mm | - | - | - |
| 1777562588 | 20° C | 21% | 1024 hPa | 0 mm | - | - | - |
| 1777561688 | 20.56° C | 22% | 1024 hPa | 0 mm | - | - | - |
| 1777560787 | 20.56° C | 23% | 1024 hPa | 0 mm | - | - | - |
| 1777559886 | 21.11° C | 22% | 1024 hPa | 0 mm | - | - | - |
| 1777558985 | 20.56° C | 22% | 1024 hPa | 0 mm | - | - | - |
* Rain latest hour (hover to see other rain measurements)
** Current wind speed in m/s (hover to see current wind gust speed)